Noti, Oregon
Current Conditions -  °F | °C
As of 10:54 PM on Sunday 23 Nov 2014 (Local Time) from KEUG Reporting Station
Scattered Clouds Scattered Clouds  
Wind Chill: 40°   Ceiling: Unl
Heat Index: 44°   Visibility: 10mi
Dew Point: 41°   Wind: 8mph
Humidity: 89%   Direction: 140°SE
Pressure: 30.37"   Gusts: NA
Location:  44.06°N, 123.45°W
Report Text: KEUG 240654Z 14007KT 10SM SCT065 07/05 A3037 RMK AO2 SLP285 T00670050
Loading
Personal Weather Stations






























Interactive Weather Map New forecast layout! Learn more

10-Day Weather Forecast

Advertisements
Track Severe Weather on mobile